Time;durP1;ratioP1;P1;durP2;ratioP2;P2;SDS_P1;SDS_P2;PMS_P1;PMS_P2;Temp;Humidity;BMP_temperature;BMP_pressure;BME280_temperature;BME280_humidity;BME280_pressure;Samples;Min_cycle;Max_cycle;Signal;HPM_P1;HPM_P2
2023/05/31 00:00:51;;;;;;;;;;;;;;;15.87;56.40;92909.44;2071682;69;20428;-79
2023/05/31 00:03:16;;;;;;;;;;;;;;;15.80;56.93;92906.94;2059179;69;20469;-80
2023/05/31 00:05:42;;;;;;;;;;;;;;;15.69;57.45;92903.66;2059003;69;20050;-77
2023/05/31 00:08:07;;;;;;;;;;;;;;;15.63;57.38;92906.19;2058877;69;20145;-77
2023/05/31 00:10:33;;;;;;;;;;;;;;;15.64;57.07;92904.13;2072110;69;20058;-78
2023/05/31 00:12:58;;;;;;;;;;;;;;;15.62;56.91;92907.56;2058962;69;20504;-77
2023/05/31 00:15:24;;;;;;;;;;;;;;;15.62;56.80;92912.50;2058837;69;20050;-77
2023/05/31 00:17:50;;;;;;;;;;;;;;;15.70;56.30;92913.63;2059062;69;20058;-77
2023/05/31 00:20:15;;;;;;;;;;;;;;;15.47;56.89;92911.84;2058964;69;20482;-81
2023/05/31 00:26:08;;;;;;;;;;;;;;;15.41;57.46;92925.03;2058915;69;20517;-77
2023/05/31 00:28:35;;;;;;;;;;;;;;;15.35;58.22;92919.81;2058948;69;20054;-78
2023/05/31 00:31:01;;;;;;;;;;;;;;;15.34;57.48;92918.34;2072036;69;20060;-76
2023/05/31 00:33:27;;;;;;;;;;;;;;;15.25;57.39;92917.22;2074714;69;20054;-77
2023/05/31 00:35:52;;;;;;;;;;;;;;;15.25;57.54;92930.66;2072889;69;20057;-78
2023/05/31 00:38:18;;;;;;;;;;;;;;;15.24;58.03;92924.28;2058970;69;20078;-77
2023/05/31 00:40:44;;;;;;;;;;;;;;;15.09;58.35;92936.31;2058931;69;20109;-77
2023/05/31 00:43:10;;;;;;;;;;;;;;;14.80;59.59;92939.13;2071778;69;20054;-80
2023/05/31 00:45:37;;;;;;;;;;;;;;;14.95;58.66;92939.19;2071914;69;20090;-79
2023/05/31 00:48:02;;;;;;;;;;;;;;;14.96;58.92;92935.00;2058793;69;20172;-81
2023/05/31 00:50:28;;;;;;;;;;;;;;;14.95;58.55;92932.81;2059075;69;20061;-82
2023/05/31 00:52:56;;;;;;;;;;;;;;;14.84;58.23;92931.56;2059076;69;20053;-77
2023/05/31 00:55:22;;;;;;;;;;;;;;;14.90;58.42;92936.81;2071812;69;20046;-78
2023/05/31 00:57:47;;;;;;;;;;;;;;;15.05;57.66;92930.44;2071858;69;20504;-77
2023/05/31 01:00:14;;;;;;;;;;;;;;;14.85;59.50;92932.31;2058759;69;20423;-77
2023/05/31 01:02:41;;;;;;;;;;;;;;;14.87;58.46;92932.41;2058400;69;20054;-76
2023/05/31 01:05:07;;;;;;;;;;;;;;;14.93;58.35;92941.19;2058812;69;20141;-78
2023/05/31 01:07:33;;;;;;;;;;;;;;;14.91;59.09;92943.94;2058972;69;20046;-78
2023/05/31 01:09:59;;;;;;;;;;;;;;;14.81;58.96;92935.69;2058827;69;20416;-80
2023/05/31 01:12:25;;;;;;;;;;;;;;;14.62;59.81;92927.66;2059211;69;20049;-78
2023/05/31 01:14:53;;;;;;;;;;;;;;;14.64;59.18;92934.13;2059567;69;20066;-76
2023/05/31 01:17:37;;;;;;;;;;;;;;;14.62;59.36;92933.31;2059143;69;20183;-80
2023/05/31 01:20:05;;;;;;;;;;;;;;;14.58;59.27;92936.69;2058949;69;20154;-76
2023/05/31 01:22:50;;;;;;;;;;;;;;;14.55;60.11;92937.94;2058984;69;20443;-76
2023/05/31 01:25:19;;;;;;;;;;;;;;;14.51;60.01;92937.72;2058615;69;20077;-76
2023/05/31 01:27:45;;;;;;;;;;;;;;;14.61;58.55;92948.84;2071764;69;20544;-76
2023/05/31 01:30:11;;;;;;;;;;;;;;;14.52;59.81;92938.47;2058823;69;20048;-79
2023/05/31 01:32:38;;;;;;;;;;;;;;;14.53;59.73;92946.34;2072039;69;20057;-76
2023/05/31 01:35:04;;;;;;;;;;;;;;;14.48;60.24;92945.41;2058880;69;20049;-78
2023/05/31 01:37:29;;;;;;;;;;;;;;;14.48;59.15;92948.25;2058904;69;20049;-77
2023/05/31 01:39:56;;;;;;;;;;;;;;;14.50;59.23;92944.78;2058852;69;20498;-77
2023/05/31 01:42:22;;;;;;;;;;;;;;;14.41;60.06;92951.38;2058710;69;20155;-76
2023/05/31 01:44:49;;;;;;;;;;;;;;;14.50;58.41;92950.44;2068906;69;20045;-77
2023/05/31 01:50:44;;;;;;;;;;;;;;;14.24;59.82;92950.53;2058758;69;20049;-77
2023/05/31 01:53:09;;;;;;;;;;;;;;;14.37;59.08;92949.06;2069118;69;20488;-76
2023/05/31 01:55:36;;;;;;;;;;;;;;;14.29;60.30;92951.47;2071809;69;20054;-77
2023/05/31 01:58:01;;;;;;;;;;;;;;;14.23;60.62;92956.81;2071719;69;20064;-78
2023/05/31 02:00:28;;;;;;;;;;;;;;;14.15;61.38;92954.31;2071340;69;20085;-77
2023/05/31 02:02:54;;;;;;;;;;;;;;;14.21;60.19;92951.81;2071746;69;20452;-78
2023/05/31 02:05:19;;;;;;;;;;;;;;;14.22;60.03;92956.09;2071879;69;20057;-78
2023/05/31 02:07:48;;;;;;;;;;;;;;;14.11;60.28;92951.28;2071546;69;20053;-81
2023/05/31 02:10:15;;;;;;;;;;;;;;;14.03;59.97;92959.34;2071819;69;20054;-77
2023/05/31 02:12:41;;;;;;;;;;;;;;;14.10;60.59;92954.72;2071887;69;20577;-80
2023/05/31 02:15:13;;;;;;;;;;;;;;;14.09;60.53;92950.44;2058416;69;20109;-76
2023/05/31 02:17:43;;;;;;;;;;;;;;;13.94;61.41;92955.38;2069088;69;20074;-77
2023/05/31 02:20:10;;;;;;;;;;;;;;;14.03;60.15;92964.28;2071746;69;20424;-78
2023/05/31 02:22:35;;;;;;;;;;;;;;;13.96;60.75;92960.38;2059727;69;20050;-76
2023/05/31 02:25:02;;;;;;;;;;;;;;;13.97;59.57;92951.28;2073490;69;20221;-76
2023/05/31 02:27:28;;;;;;;;;;;;;;;13.95;60.73;92962.47;2072073;69;20153;-76
2023/05/31 02:29:54;;;;;;;;;;;;;;;13.92;60.98;92960.16;2071764;69;20074;-77
2023/05/31 02:32:21;;;;;;;;;;;;;;;13.91;60.78;92961.53;2058866;69;20054;-79
2023/05/31 02:34:48;;;;;;;;;;;;;;;13.92;61.30;92954.50;2071935;69;20057;-77
2023/05/31 02:37:14;;;;;;;;;;;;;;;13.94;60.70;92955.38;2071729;69;20151;-77
2023/05/31 02:39:43;;;;;;;;;;;;;;;13.83;60.75;92953.34;2058665;69;20058;-77
2023/05/31 02:42:09;;;;;;;;;;;;;;;13.83;61.66;92955.44;2071129;69;20090;-80
2023/05/31 02:44:35;;;;;;;;;;;;;;;13.78;60.71;92957.31;2071571;69;20061;-79
2023/05/31 02:47:01;;;;;;;;;;;;;;;13.78;60.94;92950.94;2071659;69;20053;-80
2023/05/31 02:49:28;;;;;;;;;;;;;;;13.73;60.86;92952.81;2058614;69;20084;-77
2023/05/31 02:51:54;;;;;;;;;;;;;;;13.85;60.71;92956.28;2071601;69;20130;-78
2023/05/31 02:54:29;;;;;;;;;;;;;;;13.69;61.00;92958.25;2058552;69;20495;-76
2023/05/31 02:56:54;;;;;;;;;;;;;;;13.70;61.35;92963.31;2071532;69;20080;-77
2023/05/31 02:59:21;;;;;;;;;;;;;;;13.67;61.29;92958.16;2071343;69;20136;-77
2023/05/31 03:01:52;;;;;;;;;;;;;;;13.59;61.30;92955.63;2071601;69;20053;-78
2023/05/31 03:04:36;;;;;;;;;;;;;;;13.61;61.34;92960.66;2059765;69;20053;-77
2023/05/31 03:07:03;;;;;;;;;;;;;;;13.62;60.78;92960.03;2072503;69;20065;-76
2023/05/31 03:09:29;;;;;;;;;;;;;;;13.63;61.07;92964.31;2071917;69;20520;-77
2023/05/31 03:11:55;;;;;;;;;;;;;;;13.52;61.10;92964.41;2068902;69;20139;-77
2023/05/31 03:14:21;;;;;;;;;;;;;;;13.55;61.63;92960.31;2071528;69;20427;-78
2023/05/31 03:16:48;;;;;;;;;;;;;;;13.54;60.97;92965.25;2071716;69;20053;-79
2023/05/31 03:19:16;;;;;;;;;;;;;;;13.52;60.89;92970.06;2071779;69;20057;-80
2023/05/31 03:21:44;;;;;;;;;;;;;;;13.45;61.62;92969.00;2071840;69;20057;-78
2023/05/31 03:24:09;;;;;;;;;;;;;;;13.43;61.54;92969.63;2071690;69;20054;-79
2023/05/31 03:26:36;;;;;;;;;;;;;;;13.35;61.96;92974.84;2071735;69;20057;-77
2023/05/31 03:29:01;;;;;;;;;;;;;;;13.32;62.15;92975.34;2058663;69;20058;-77
2023/05/31 03:31:29;;;;;;;;;;;;;;;13.31;62.27;92979.53;2071670;69;20057;-77
2023/05/31 03:33:55;;;;;;;;;;;;;;;13.21;62.31;92968.38;2071252;69;20529;-76
2023/05/31 03:36:21;;;;;;;;;;;;;;;13.24;62.58;92981.31;2071636;69;20078;-77
2023/05/31 03:38:46;;;;;;;;;;;;;;;13.24;62.67;92978.47;2071630;69;20050;-76
2023/05/31 03:41:13;;;;;;;;;;;;;;;13.26;62.43;92975.75;2071600;69;20427;-77
2023/05/31 03:43:39;;;;;;;;;;;;;;;13.24;62.33;92975.66;2071454;69;20500;-77
2023/05/31 03:46:04;;;;;;;;;;;;;;;13.30;62.04;92983.72;2058353;69;20472;-79
2023/05/31 03:48:30;;;;;;;;;;;;;;;13.33;61.84;92977.56;2071553;69;20104;-80
2023/05/31 03:50:56;;;;;;;;;;;;;;;13.23;62.48;92985.47;2072045;69;20530;-77
2023/05/31 03:53:22;;;;;;;;;;;;;;;12.98;63.01;92984.09;2059166;69;20172;-79
2023/05/31 03:55:47;;;;;;;;;;;;;;;12.93;63.11;92992.97;2059190;69;20058;-77
2023/05/31 03:58:13;;;;;;;;;;;;;;;13.07;62.43;92987.38;2072262;69;20118;-77
2023/05/31 04:00:41;;;;;;;;;;;;;;;13.06;62.64;92988.75;2071980;69;20050;-77
2023/05/31 04:03:07;;;;;;;;;;;;;;;13.04;63.31;92986.50;2072180;69;20099;-78
2023/05/31 04:05:35;;;;;;;;;;;;;;;13.01;62.99;92990.56;2071933;69;20066;-77
2023/05/31 04:08:01;;;;;;;;;;;;;;;13.10;63.29;92988.94;2059065;69;20065;-77
2023/05/31 04:10:30;;;;;;;;;;;;;;;13.09;62.93;92990.31;2072097;69;20101;-76
2023/05/31 04:12:56;;;;;;;;;;;;;;;13.03;63.25;92985.06;2074962;69;20057;-78
2023/05/31 04:15:22;;;;;;;;;;;;;;;12.89;63.22;92987.81;2072076;69;20054;-75
2023/05/31 04:17:50;;;;;;;;;;;;;;;12.82;63.27;92990.91;2072212;69;20089;-78
2023/05/31 04:20:17;;;;;;;;;;;;;;;12.96;62.93;92994.53;2072304;69;20085;-79
2023/05/31 04:22:42;;;;;;;;;;;;;;;13.13;62.35;92991.28;2072115;69;20119;-78
2023/05/31 04:25:09;;;;;;;;;;;;;;;13.09;63.30;92993.88;2071813;69;20054;-77
2023/05/31 04:27:40;;;;;;;;;;;;;;;13.01;64.00;93001.16;2058876;69;20157;-78
2023/05/31 04:30:06;;;;;;;;;;;;;;;13.01;63.85;93001.88;2071959;69;20106;-77
2023/05/31 04:32:36;;;;;;;;;;;;;;;12.96;64.50;93003.00;2072099;69;20058;-78
2023/05/31 04:35:03;;;;;;;;;;;;;;;13.10;63.40;93003.06;2059070;69;20119;-78
2023/05/31 04:37:30;;;;;;;;;;;;;;;13.13;63.29;92996.91;2059059;69;20137;-78
2023/05/31 04:43:26;;;;;;;;;;;;;;;13.14;63.40;93001.22;2057331;69;20130;-77
2023/05/31 04:45:55;;;;;;;;;;;;;;;13.09;64.12;93010.81;2072091;69;20057;-78
2023/05/31 04:48:21;;;;;;;;;;;;;;;13.01;64.50;93010.34;2069340;69;20074;-78
2023/05/31 04:50:51;;;;;;;;;;;;;;;12.96;64.87;93009.38;2072103;69;20499;-76
2023/05/31 04:56:45;;;;;;;;;;;;;;;13.04;64.61;93016.88;2059454;69;20091;-76
2023/05/31 04:59:11;;;;;;;;;;;;;;;13.11;63.66;93019.44;2058989;69;20119;-77
2023/05/31 05:01:39;;;;;;;;;;;;;;;13.23;63.18;93013.75;2072121;69;20054;-78
2023/05/31 05:04:09;;;;;;;;;;;;;;;13.20;63.97;93012.88;2072062;69;20078;-77
2023/05/31 05:06:37;;;;;;;;;;;;;;;13.30;63.87;93012.00;2071890;69;20105;-78
2023/05/31 05:09:03;;;;;;;;;;;;;;;13.26;63.85;93008.94;2069213;69;20409;-78
2023/05/31 05:11:30;;;;;;;;;;;;;;;13.21;64.59;93011.50;2072039;69;20050;-77
2023/05/31 05:13:56;;;;;;;;;;;;;;;13.26;64.25;93012.50;2071461;69;20061;-77
2023/05/31 05:16:27;;;;;;;;;;;;;;;13.16;64.75;93015.47;2072079;69;20050;-77
2023/05/31 05:18:52;;;;;;;;;;;;;;;13.27;64.76;93013.25;2071760;69;20153;-78
2023/05/31 05:21:18;;;;;;;;;;;;;;;13.35;63.93;93008.03;2071876;69;20145;-80
2023/05/31 05:23:44;;;;;;;;;;;;;;;13.28;63.77;93009.03;2059253;69;20468;-79
2023/05/31 05:26:12;;;;;;;;;;;;;;;13.41;63.59;92999.88;2071928;69;20154;-78
2023/05/31 05:28:38;;;;;;;;;;;;;;;13.42;64.33;93013.41;2071785;69;20493;-80
2023/05/31 05:31:04;;;;;;;;;;;;;;;13.46;64.67;93010.06;2071712;69;20202;-80
2023/05/31 05:33:34;;;;;;;;;;;;;;;13.53;64.53;93009.03;2071927;69;20409;-78
2023/05/31 05:36:02;;;;;;;;;;;;;;;13.52;64.02;93009.69;2071682;69;20050;-76
2023/05/31 05:38:30;;;;;;;;;;;;;;;13.52;64.95;93018.16;2071908;69;20053;-79
2023/05/31 05:40:56;;;;;;;;;;;;;;;13.57;64.54;93012.09;2071910;69;20054;-78
2023/05/31 05:43:23;;;;;;;;;;;;;;;13.47;65.57;93020.03;2071825;69;20477;-78
2023/05/31 05:45:59;;;;;;;;;;;;;;;13.61;64.51;93020.06;2071948;69;20417;-78
2023/05/31 05:48:25;;;;;;;;;;;;;;;13.57;63.92;93011.38;2071952;69;20122;-77
2023/05/31 05:50:51;;;;;;;;;;;;;;;13.65;64.64;93012.53;2071535;69;20050;-77
2023/05/31 05:53:17;;;;;;;;;;;;;;;13.76;63.51;93015.91;2071538;69;20115;-77
2023/05/31 05:55:47;;;;;;;;;;;;;;;13.87;61.40;92998.84;2058806;69;20107;-78
2023/05/31 05:58:16;;;;;;;;;;;;;;;13.90;62.73;93011.75;2071845;69;20069;-77
2023/05/31 06:01:02;;;;;;;;;;;;;;;13.77;64.19;93009.63;2064052;69;20093;-77
2023/05/31 06:03:30;;;;;;;;;;;;;;;13.80;63.87;93002.72;2074595;69;20089;-77
2023/05/31 06:05:56;;;;;;;;;;;;;;;13.83;64.54;93004.28;2072023;69;20054;-77
2023/05/31 06:08:22;;;;;;;;;;;;;;;13.87;64.72;93003.78;2072010;69;20508;-77
2023/05/31 06:10:48;;;;;;;;;;;;;;;14.02;63.24;92997.53;2071791;69;20089;-77
2023/05/31 06:13:15;;;;;;;;;;;;;;;14.12;63.55;92998.03;2071712;69;20130;-77
2023/05/31 06:15:41;;;;;;;;;;;;;;;13.99;65.03;92993.09;2071830;69;20077;-77
2023/05/31 06:18:06;;;;;;;;;;;;;;;14.13;64.83;92991.00;2071578;69;20141;-78
2023/05/31 06:20:32;;;;;;;;;;;;;;;14.26;64.69;92998.06;2072014;69;20053;-79
2023/05/31 06:22:59;;;;;;;;;;;;;;;14.39;64.11;93000.16;2071816;69;20050;-78
2023/05/31 06:25:24;;;;;;;;;;;;;;;14.61;63.52;92994.91;2071557;69;20499;-78
2023/05/31 06:27:51;;;;;;;;;;;;;;;14.67;63.87;92983.16;2058835;69;20061;-78
2023/05/31 06:30:17;;;;;;;;;;;;;;;14.84;62.97;92990.34;2071854;69;20050;-78
2023/05/31 06:32:44;;;;;;;;;;;;;;;15.03;61.57;92994.81;2071634;69;20118;-78
2023/05/31 06:35:14;;;;;;;;;;;;;;;15.10;62.14;92990.91;2071779;69;20046;-79
2023/05/31 06:37:40;;;;;;;;;;;;;;;15.15;61.15;92978.41;2071617;69;20078;-79
2023/05/31 06:40:07;;;;;;;;;;;;;;;15.21;60.55;92987.19;2058529;69;20046;-78
2023/05/31 06:42:33;;;;;;;;;;;;;;;15.41;60.00;92985.34;2071764;69;20077;-78
2023/05/31 06:44:58;;;;;;;;;;;;;;;15.55;60.38;92985.28;2059257;69;20155;-77
2023/05/31 06:47:45;;;;;;;;;;;;;;;15.63;60.03;92977.16;2059302;69;20050;-76
2023/05/31 06:50:29;;;;;;;;;;;;;;;15.85;58.83;92977.47;2058882;69;20092;-76
2023/05/31 06:53:13;;;;;;;;;;;;;;;15.93;58.10;92974.25;2058770;69;20061;-76
2023/05/31 06:55:42;;;;;;;;;;;;;;;16.10;57.78;92972.88;2071816;69;20046;-78
2023/05/31 06:58:13;;;;;;;;;;;;;;;16.18;58.88;92964.72;2069056;69;20073;-78
2023/05/31 07:00:40;;;;;;;;;;;;;;;16.23;57.82;92967.09;2071723;69;20443;-77
2023/05/31 07:03:05;;;;;;;;;;;;;;;16.36;57.29;92959.13;2071786;69;20570;-79
2023/05/31 07:05:32;;;;;;;;;;;;;;;16.39;57.69;92952.88;2071838;69;20062;-78
2023/05/31 07:07:58;;;;;;;;;;;;;;;16.41;58.97;92952.97;2071632;69;20050;-78
2023/05/31 07:10:24;;;;;;;;;;;;;;;16.55;57.89;92952.84;2058587;69;20415;-77
2023/05/31 07:12:50;;;;;;;;;;;;;;;16.58;57.12;92950.81;2071801;69;20453;-77
2023/05/31 07:15:16;;;;;;;;;;;;;;;16.76;56.29;92943.06;2071700;69;20077;-79
2023/05/31 07:17:42;;;;;;;;;;;;;;;16.65;56.13;92947.59;2058793;69;20089;-78
2023/05/31 07:20:08;;;;;;;;;;;;;;;16.77;55.69;92938.88;2071782;69;20081;-76
2023/05/31 07:22:34;;;;;;;;;;;;;;;16.76;54.00;92937.41;2058720;69;20054;-77
2023/05/31 07:24:59;;;;;;;;;;;;;;;16.94;57.31;92935.31;2058475;69;20134;-77
2023/05/31 07:27:25;;;;;;;;;;;;;;;17.07;55.56;92928.00;2059338;69;20115;-76
2023/05/31 07:29:50;;;;;;;;;;;;;;;16.97;52.87;92928.31;2059388;69;20069;-78
2023/05/31 07:32:16;;;;;;;;;;;;;;;17.05;51.27;92930.78;2072946;69;20046;-77
2023/05/31 07:34:42;;;;;;;;;;;;;;;16.81;51.58;92921.97;2059355;69;20153;-78
2023/05/31 07:37:07;;;;;;;;;;;;;;;16.97;51.59;92924.75;2059157;69;20050;-78
2023/05/31 07:39:32;;;;;;;;;;;;;;;17.37;51.95;92919.22;2058759;69;20057;-78
2023/05/31 07:41:58;;;;;;;;;;;;;;;17.55;51.69;92917.09;2059097;69;20046;-77
2023/05/31 07:44:25;;;;;;;;;;;;;;;17.69;53.17;92916.91;2058846;69;20050;-77
2023/05/31 07:46:50;;;;;;;;;;;;;;;17.85;54.09;92908.97;2058966;69;20069;-77
2023/05/31 07:49:16;;;;;;;;;;;;;;;17.91;51.07;92903.50;2059045;69;20097;-78
2023/05/31 07:51:41;;;;;;;;;;;;;;;17.65;50.53;92900.38;2060767;69;20140;-78
2023/05/31 07:54:07;;;;;;;;;;;;;;;17.74;51.16;92899.34;2059897;69;20050;-77
2023/05/31 07:56:32;;;;;;;;;;;;;;;17.86;50.33;92884.81;2059335;69;20086;-78
2023/05/31 07:58:58;;;;;;;;;;;;;;;18.51;51.08;92889.25;2059215;69;20054;-79
2023/05/31 08:01:23;;;;;;;;;;;;;;;18.70;48.20;92887.78;2059145;69;20062;-78
2023/05/31 08:03:50;;;;;;;;;;;;;;;18.92;49.26;92884.91;2071588;69;20209;-78
2023/05/31 08:06:16;;;;;;;;;;;;;;;19.39;49.12;92881.44;2059040;69;20061;-77
2023/05/31 08:08:43;;;;;;;;;;;;;;;19.45;47.22;92883.75;2072118;69;20046;-82
2023/05/31 08:11:10;;;;;;;;;;;;;;;19.87;47.15;92886.44;2059179;69;20062;-79
2023/05/31 08:13:36;;;;;;;;;;;;;;;20.15;46.96;92880.81;2059086;69;20054;-78
2023/05/31 08:16:01;;;;;;;;;;;;;;;20.50;46.97;92874.69;2059092;69;20477;-78
2023/05/31 08:18:27;;;;;;;;;;;;;;;20.62;44.99;92874.28;2059073;69;20049;-79
2023/05/31 08:20:52;;;;;;;;;;;;;;;20.95;42.73;92878.69;2059042;69;20137;-77
2023/05/31 08:23:20;;;;;;;;;;;;;;;21.17;43.88;92877.81;2058911;69;20069;-77
2023/05/31 08:25:46;;;;;;;;;;;;;;;21.23;43.35;92880.81;2058775;69;20050;-77
2023/05/31 08:28:11;;;;;;;;;;;;;;;21.87;42.46;92878.00;2059047;69;20122;-77
2023/05/31 08:30:38;;;;;;;;;;;;;;;22.54;41.58;92875.78;2058719;69;20539;-78
2023/05/31 08:33:04;;;;;;;;;;;;;;;21.61;40.59;92874.53;2059287;69;20141;-77
2023/05/31 08:35:29;;;;;;;;;;;;;;;22.41;41.60;92874.09;2059662;69;20071;-79
2023/05/31 08:37:55;;;;;;;;;;;;;;;22.29;40.34;92869.56;2059272;69;20565;-77
2023/05/31 08:40:23;;;;;;;;;;;;;;;23.40;41.40;92862.94;2059047;69;20512;-77
2023/05/31 08:42:57;;;;;;;;;;;;;;;23.88;40.60;92873.72;2058576;69;20119;-80
2023/05/31 08:45:28;;;;;;;;;;;;;;;24.31;38.64;92864.22;2058996;69;20050;-78
2023/05/31 08:48:02;;;;;;;;;;;;;;;24.91;39.19;92862.03;2059190;69;20046;-78
2023/05/31 08:53:56;;;;;;;;;;;;;;;25.19;38.63;92861.59;2059039;69;20045;-78
2023/05/31 08:56:26;;;;;;;;;;;;;;;25.49;34.59;92852.47;2058661;69;20050;-78
2023/05/31 08:58:53;;;;;;;;;;;;;;;25.80;36.84;92859.94;2058981;69;20050;-77
2023/05/31 09:01:19;;;;;;;;;;;;;;;26.24;36.39;92858.72;2059052;69;20041;-78
2023/05/31 09:03:45;;;;;;;;;;;;;;;26.35;35.57;92853.72;2058947;69;20042;-78
2023/05/31 09:06:11;;;;;;;;;;;;;;;25.94;36.05;92847.03;2059031;69;20063;-78
2023/05/31 09:08:37;;;;;;;;;;;;;;;25.78;33.46;92839.00;2058794;69;20488;-78
2023/05/31 09:14:31;;;;;;;;;;;;;;;26.07;35.90;92834.09;2058938;69;20046;-78
2023/05/31 09:16:57;;;;;;;;;;;;;;;25.62;35.25;92836.72;2059171;69;20082;-79
2023/05/31 09:19:22;;;;;;;;;;;;;;;26.61;35.17;92827.13;2058721;69;20054;-80
2023/05/31 09:21:48;;;;;;;;;;;;;;;26.33;34.50;92828.47;2058880;69;20046;-81
2023/05/31 09:24:15;;;;;;;;;;;;;;;27.09;34.76;92823.66;2058754;69;20046;-81
2023/05/31 09:26:47;;;;;;;;;;;;;;;27.42;32.50;92820.75;2059002;69;20057;-80
2023/05/31 09:29:13;;;;;;;;;;;;;;;28.23;33.66;92819.19;2058908;69;20545;-82
2023/05/31 09:31:38;;;;;;;;;;;;;;;28.10;33.22;92815.63;2059060;69;20050;-79
2023/05/31 09:37:31;;;;;;;;;;;;;;;28.98;30.63;92821.75;2059041;69;20049;-80
2023/05/31 09:43:28;;;;;;;;;;;;;;;29.32;29.75;92809.22;2060566;69;20587;-84
2023/05/31 09:45:55;;;;;;;;;;;;;;;29.45;30.17;92800.41;2059102;69;20057;-79
2023/05/31 09:48:22;;;;;;;;;;;;;;;29.57;28.13;92794.53;2058629;69;20497;-79
2023/05/31 09:50:49;;;;;;;;;;;;;;;29.37;28.91;92792.50;2058887;69;20480;-78
2023/05/31 09:53:16;;;;;;;;;;;;;;;30.28;28.11;92796.72;2058885;69;20046;-80
2023/05/31 09:55:42;;;;;;;;;;;;;;;29.87;28.35;92793.50;2058893;69;20116;-81
2023/05/31 09:58:30;;;;;;;;;;;;;;;28.97;28.53;92790.63;2071930;69;20073;-81
2023/05/31 10:00:58;;;;;;;;;;;;;;;29.62;27.03;92784.34;2072250;69;20057;-81
2023/05/31 10:03:24;;;;;;;;;;;;;;;30.49;26.25;92787.75;2058851;69;20038;-79
2023/05/31 10:05:51;;;;;;;;;;;;;;;29.83;25.08;92779.06;2058871;69;20519;-78
2023/05/31 10:08:16;;;;;;;;;;;;;;;31.21;25.35;92785.31;2058896;69;20049;-80
2023/05/31 10:10:41;;;;;;;;;;;;;;;30.95;24.67;92779.91;2059050;69;20093;-81
2023/05/31 10:13:11;;;;;;;;;;;;;;;30.16;23.67;92770.75;2058909;69;20093;-77
2023/05/31 10:15:38;;;;;;;;;;;;;;;28.96;25.63;92780.50;2072081;69;20056;-81
2023/05/31 10:18:10;;;;;;;;;;;;;;;30.95;25.81;92771.91;2059224;69;20046;-77
2023/05/31 10:20:44;;;;;;;;;;;;;;;30.89;24.16;92772.00;2059122;69;20143;-82
2023/05/31 10:23:21;;;;;;;;;;;;;;;31.69;25.02;92765.63;2058449;69;20053;-80
2023/05/31 10:25:56;;;;;;;;;;;;;;;33.26;24.00;92776.31;2058639;69;20061;-80
2023/05/31 10:28:24;;;;;;;;;;;;;;;32.73;21.43;92775.31;2058530;69;20500;-79
2023/05/31 10:30:51;;;;;;;;;;;;;;;34.34;21.64;92764.84;2058780;69;20070;-79
2023/05/31 10:36:45;;;;;;;;;;;;;;;36.87;18.44;92777.19;2058899;69;20115;-80
2023/05/31 10:39:16;;;;;;;;;;;;;;;38.89;18.35;92772.56;2058774;69;20077;-79
2023/05/31 10:41:43;;;;;;;;;;;;;;;34.86;19.02;92764.81;2058852;69;20572;-80
2023/05/31 10:44:12;;;;;;;;;;;;;;;31.25;22.41;92750.38;2071561;69;20096;-79
2023/05/31 10:46:38;;;;;;;;;;;;;;;34.09;20.69;92756.78;2058802;69;20105;-79
2023/05/31 10:49:05;;;;;;;;;;;;;;;39.44;15.85;92757.50;2058796;69;20054;-78
2023/05/31 10:51:45;;;;;;;;;;;;;;;40.52;16.09;92766.22;2058817;69;20076;-78
2023/05/31 10:57:38;;;;;;;;;;;;;;;35.19;17.89;92735.34;2058841;69;20057;-79
2023/05/31 11:00:06;;;;;;;;;;;;;;;38.38;17.15;92736.59;2059129;69;20416;-80
2023/05/31 11:02:33;;;;;;;;;;;;;;;34.62;19.89;92728.28;2059250;69;20504;-80
2023/05/31 11:05:17;;;;;;;;;;;;;;;33.28;21.01;92726.72;2059233;69;20068;-80
2023/05/31 11:07:43;;;;;;;;;;;;;;;41.28;15.80;92742.22;2059225;69;20054;-80
2023/05/31 11:10:10;;;;;;;;;;;;;;;34.97;19.85;92721.41;2059285;69;20505;-80
2023/05/31 11:12:40;;;;;;;;;;;;;;;32.83;21.93;92705.13;2059305;69;20234;-80
2023/05/31 11:15:13;;;;;;;;;;;;;;;33.13;22.46;92712.47;2059107;69;20062;-79
2023/05/31 11:17:40;;;;;;;;;;;;;;;32.14;22.35;92706.59;2059217;69;20053;-80
2023/05/31 11:20:06;;;;;;;;;;;;;;;31.12;23.96;92711.31;2059244;69;20191;-80
2023/05/31 11:22:32;;;;;;;;;;;;;;;28.99;24.28;92710.19;2072236;69;20050;-79
2023/05/31 11:24:58;;;;;;;;;;;;;;;29.85;23.78;92707.22;2059215;69;20061;-82
2023/05/31 11:27:35;;;;;;;;;;;;;;;28.52;23.71;92701.81;2059183;69;20046;-82
2023/05/31 11:30:01;;;;;;;;;;;;;;;28.95;24.06;92704.44;2063705;69;20010;-79
2023/05/31 11:32:33;;;;;;;;;;;;;;;28.17;25.16;92706.34;2063504;69;20047;-79
2023/05/31 11:35:01;;;;;;;;;;;;;;;29.49;24.26;92704.69;2059925;69;20174;-80
2023/05/31 11:37:28;;;;;;;;;;;;;;;29.28;24.89;92701.28;2072221;69;20054;-80
2023/05/31 11:39:54;;;;;;;;;;;;;;;28.92;25.62;92694.31;2059266;69;20413;-80
2023/05/31 11:42:20;;;;;;;;;;;;;;;29.08;26.10;92699.25;2059159;69;20552;-82
2023/05/31 11:44:46;;;;;;;;;;;;;;;29.64;25.84;92703.09;2059233;69;20141;-80
2023/05/31 11:47:19;;;;;;;;;;;;;;;28.80;25.43;92698.00;2059354;69;20439;-83
2023/05/31 11:49:45;;;;;;;;;;;;;;;29.43;26.25;92704.75;2059200;69;20058;-83
2023/05/31 11:52:15;;;;;;;;;;;;;;;29.82;26.16;92693.47;2071800;69;20389;-82
2023/05/31 11:54:45;;;;;;;;;;;;;;;29.46;24.52;92703.25;2059209;69;20149;-86
2023/05/31 11:57:11;;;;;;;;;;;;;;;28.79;25.41;92699.47;2059212;69;20086;-81
2023/05/31 11:59:37;;;;;;;;;;;;;;;27.74;27.27;92689.19;2059184;69;20056;-81
2023/05/31 12:02:03;;;;;;;;;;;;;;;28.25;26.78;92689.66;2059296;69;20477;-82
2023/05/31 12:04:33;;;;;;;;;;;;;;;28.06;26.69;92688.31;2059122;69;20053;-81
2023/05/31 12:06:59;;;;;;;;;;;;;;;28.20;27.36;92691.13;2072073;69;20054;-81
2023/05/31 12:09:25;;;;;;;;;;;;;;;28.74;29.23;92694.44;2059253;69;20050;-80
2023/05/31 12:11:51;;;;;;;;;;;;;;;29.06;30.08;92693.50;2059784;69;20058;-79
2023/05/31 12:14:17;;;;;;;;;;;;;;;28.94;29.76;92688.47;2073165;69;20069;-81
2023/05/31 12:16:44;;;;;;;;;;;;;;;29.63;29.30;92682.06;2059196;69;20415;-81
2023/05/31 12:19:13;;;;;;;;;;;;;;;29.59;31.41;92685.00;2059178;69;20046;-80
2023/05/31 12:21:38;;;;;;;;;;;;;;;29.59;32.51;92687.91;2072169;69;20073;-81
2023/05/31 12:24:10;;;;;;;;;;;;;;;30.28;31.87;92691.47;2059276;69;20583;-81
2023/05/31 12:26:36;;;;;;;;;;;;;;;30.34;30.57;92692.13;2059304;69;20514;-81
2023/05/31 12:32:30;;;;;;;;;;;;;;;31.23;26.13;92686.41;2059075;69;20112;-80
2023/05/31 12:35:08;;;;;;;;;;;;;;;31.16;29.15;92682.19;2059095;69;20137;-81
2023/05/31 12:37:36;;;;;;;;;;;;;;;30.91;27.14;92687.66;2071694;69;20050;-81
2023/05/31 12:40:11;;;;;;;;;;;;;;;31.37;26.23;92680.38;2059042;69;20046;-81
2023/05/31 12:42:37;;;;;;;;;;;;;;;31.55;26.30;92685.16;2058946;69;20050;-82
2023/05/31 12:45:06;;;;;;;;;;;;;;;31.55;28.03;92682.25;2071905;69;20419;-81
2023/05/31 12:47:35;;;;;;;;;;;;;;;30.80;25.81;92668.97;2059031;69;20042;-82
2023/05/31 12:50:06;;;;;;;;;;;;;;;30.18;26.42;92665.47;2059120;69;20159;-80
2023/05/31 12:52:33;;;;;;;;;;;;;;;30.84;24.89;92674.72;2059049;69;20431;-81
2023/05/31 12:55:00;;;;;;;;;;;;;;;30.31;24.52;92661.66;2072128;69;20057;-81
2023/05/31 12:57:26;;;;;;;;;;;;;;;30.44;24.09;92653.50;2059092;69;20054;-81
2023/05/31 13:00:01;;;;;;;;;;;;;;;30.41;23.67;92663.69;2058987;69;20057;-81
2023/05/31 13:02:27;;;;;;;;;;;;;;;30.68;26.23;92664.03;2059396;69;20082;-80
2023/05/31 13:04:54;;;;;;;;;;;;;;;29.74;25.25;92662.38;2059176;69;20153;-81
2023/05/31 13:07:27;;;;;;;;;;;;;;;29.18;25.83;92652.06;2059111;69;20212;-80
2023/05/31 13:09:53;;;;;;;;;;;;;;;30.55;25.47;92657.69;2059064;69;20485;-81
2023/05/31 13:12:21;;;;;;;;;;;;;;;30.75;25.05;92659.59;2059122;69;20049;-81
2023/05/31 13:14:47;;;;;;;;;;;;;;;30.11;24.71;92656.84;2058926;69;20115;-81
2023/05/31 13:17:14;;;;;;;;;;;;;;;29.76;26.00;92661.63;2071950;69;20077;-80
2023/05/31 13:19:40;;;;;;;;;;;;;;;30.11;26.61;92651.03;2064051;69;20118;-80
2023/05/31 13:22:06;;;;;;;;;;;;;;;30.15;25.60;92653.19;2063182;69;20435;-81
2023/05/31 13:24:32;;;;;;;;;;;;;;;28.69;25.28;92647.41;2059350;69;20062;-81
2023/05/31 13:26:57;;;;;;;;;;;;;;;28.97;25.72;92643.59;2059208;69;20080;-79